sensor_id;sensor_type;location;lat;lon;timestamp;P1;durP1;ratioP1;P2;durP2;ratioP2
13785;SDS011;47474;48.824;9.384;2024-02-14T00:01:24;4.63;;;3.30;;
13785;SDS011;47474;48.824;9.384;2024-02-14T00:04:02;3.73;;;2.73;;
13785;SDS011;47474;48.824;9.384;2024-02-14T00:06:34;3.70;;;2.73;;
13785;SDS011;47474;48.824;9.384;2024-02-14T00:09:04;5.03;;;3.17;;
13785;SDS011;47474;48.824;9.384;2024-02-14T00:11:33;5.57;;;3.20;;
13785;SDS011;47474;48.824;9.384;2024-02-14T00:14:03;4.73;;;3.30;;
13785;SDS011;47474;48.824;9.384;2024-02-14T00:16:29;4.13;;;3.30;;
13785;SDS011;47474;48.824;9.384;2024-02-14T00:18:56;4.67;;;2.80;;
13785;SDS011;47474;48.824;9.384;2024-02-14T00:21:22;5.67;;;3.47;;
13785;SDS011;47474;48.824;9.384;2024-02-14T00:23:49;5.47;;;3.37;;
13785;SDS011;47474;48.824;9.384;2024-02-14T00:26:15;5.03;;;3.00;;
13785;SDS011;47474;48.824;9.384;2024-02-14T00:28:43;6.70;;;3.10;;
13785;SDS011;47474;48.824;9.384;2024-02-14T00:31:09;4.03;;;3.10;;
13785;SDS011;47474;48.824;9.384;2024-02-14T00:33:36;3.40;;;2.60;;
13785;SDS011;47474;48.824;9.384;2024-02-14T00:36:02;3.60;;;2.43;;
13785;SDS011;47474;48.824;9.384;2024-02-14T00:38:29;4.23;;;2.70;;
13785;SDS011;47474;48.824;9.384;2024-02-14T00:40:56;4.87;;;2.50;;
13785;SDS011;47474;48.824;9.384;2024-02-14T00:43:22;3.90;;;2.60;;
13785;SDS011;47474;48.824;9.384;2024-02-14T00:45:50;3.87;;;2.90;;
13785;SDS011;47474;48.824;9.384;2024-02-14T00:48:17;3.63;;;2.53;;
13785;SDS011;47474;48.824;9.384;2024-02-14T00:50:43;3.80;;;3.00;;
13785;SDS011;47474;48.824;9.384;2024-02-14T00:53:10;3.03;;;2.70;;
13785;SDS011;47474;48.824;9.384;2024-02-14T00:55:38;3.10;;;2.73;;
13785;SDS011;47474;48.824;9.384;2024-02-14T00:58:04;3.27;;;2.90;;
13785;SDS011;47474;48.824;9.384;2024-02-14T01:00:31;3.57;;;2.73;;
13785;SDS011;47474;48.824;9.384;2024-02-14T01:02:59;3.20;;;2.13;;
13785;SDS011;47474;48.824;9.384;2024-02-14T01:05:25;6.23;;;2.17;;
13785;SDS011;47474;48.824;9.384;2024-02-14T01:07:52;3.40;;;2.80;;
13785;SDS011;47474;48.824;9.384;2024-02-14T01:10:20;4.60;;;2.90;;
13785;SDS011;47474;48.824;9.384;2024-02-14T01:12:46;4.47;;;3.57;;
13785;SDS011;47474;48.824;9.384;2024-02-14T01:15:13;4.00;;;3.53;;
13785;SDS011;47474;48.824;9.384;2024-02-14T01:17:39;4.30;;;3.40;;
13785;SDS011;47474;48.824;9.384;2024-02-14T01:20:08;3.53;;;3.23;;
13785;SDS011;47474;48.824;9.384;2024-02-14T01:22:34;6.87;;;3.40;;
13785;SDS011;47474;48.824;9.384;2024-02-14T01:25:01;4.53;;;3.57;;
13785;SDS011;47474;48.824;9.384;2024-02-14T01:27:29;5.13;;;2.93;;
13785;SDS011;47474;48.824;9.384;2024-02-14T01:29:56;4.53;;;3.40;;
13785;SDS011;47474;48.824;9.384;2024-02-14T01:32:23;4.97;;;3.30;;
13785;SDS011;47474;48.824;9.384;2024-02-14T01:34:49;4.40;;;2.93;;
13785;SDS011;47474;48.824;9.384;2024-02-14T01:37:17;4.23;;;3.60;;
13785;SDS011;47474;48.824;9.384;2024-02-14T01:39:52;3.10;;;2.80;;
13785;SDS011;47474;48.824;9.384;2024-02-14T01:42:20;3.77;;;3.37;;
13785;SDS011;47474;48.824;9.384;2024-02-14T01:44:51;5.90;;;3.63;;
13785;SDS011;47474;48.824;9.384;2024-02-14T01:47:18;5.23;;;3.40;;
13785;SDS011;47474;48.824;9.384;2024-02-14T01:49:47;4.47;;;3.30;;
13785;SDS011;47474;48.824;9.384;2024-02-14T01:52:16;3.27;;;2.90;;
13785;SDS011;47474;48.824;9.384;2024-02-14T01:54:45;3.73;;;2.67;;
13785;SDS011;47474;48.824;9.384;2024-02-14T01:57:12;4.37;;;3.17;;
13785;SDS011;47474;48.824;9.384;2024-02-14T01:59:41;4.87;;;3.70;;
13785;SDS011;47474;48.824;9.384;2024-02-14T02:02:08;6.10;;;3.57;;
13785;SDS011;47474;48.824;9.384;2024-02-14T02:04:34;6.70;;;4.10;;
13785;SDS011;47474;48.824;9.384;2024-02-14T02:07:01;4.83;;;3.60;;
13785;SDS011;47474;48.824;9.384;2024-02-14T02:09:30;4.23;;;3.07;;
13785;SDS011;47474;48.824;9.384;2024-02-14T02:11:57;7.73;;;3.60;;
13785;SDS011;47474;48.824;9.384;2024-02-14T02:14:25;4.27;;;3.07;;
13785;SDS011;47474;48.824;9.384;2024-02-14T02:16:52;3.63;;;2.97;;
13785;SDS011;47474;48.824;9.384;2024-02-14T02:19:18;4.80;;;3.60;;
13785;SDS011;47474;48.824;9.384;2024-02-14T02:21:47;5.57;;;3.40;;
13785;SDS011;47474;48.824;9.384;2024-02-14T02:24:15;5.07;;;3.77;;
13785;SDS011;47474;48.824;9.384;2024-02-14T02:26:43;4.53;;;3.63;;
13785;SDS011;47474;48.824;9.384;2024-02-14T02:29:10;5.13;;;3.03;;
13785;SDS011;47474;48.824;9.384;2024-02-14T02:31:37;4.17;;;3.10;;
13785;SDS011;47474;48.824;9.384;2024-02-14T02:34:03;4.60;;;3.40;;
13785;SDS011;47474;48.824;9.384;2024-02-14T02:36:30;4.30;;;3.17;;
13785;SDS011;47474;48.824;9.384;2024-02-14T02:38:56;4.37;;;2.97;;
13785;SDS011;47474;48.824;9.384;2024-02-14T02:41:26;4.27;;;2.97;;
13785;SDS011;47474;48.824;9.384;2024-02-14T02:43:53;5.03;;;3.33;;
13785;SDS011;47474;48.824;9.384;2024-02-14T02:46:19;5.53;;;2.80;;
13785;SDS011;47474;48.824;9.384;2024-02-14T02:48:46;2.10;;;1.90;;
13785;SDS011;47474;48.824;9.384;2024-02-14T02:51:15;4.40;;;2.97;;
13785;SDS011;47474;48.824;9.384;2024-02-14T02:53:42;5.27;;;3.33;;
13785;SDS011;47474;48.824;9.384;2024-02-14T02:56:07;4.53;;;2.87;;
13785;SDS011;47474;48.824;9.384;2024-02-14T02:58:35;4.67;;;3.20;;
13785;SDS011;47474;48.824;9.384;2024-02-14T03:01:07;3.50;;;3.17;;
13785;SDS011;47474;48.824;9.384;2024-02-14T03:03:33;5.20;;;2.80;;
13785;SDS011;47474;48.824;9.384;2024-02-14T03:06:01;6.80;;;2.73;;
13785;SDS011;47474;48.824;9.384;2024-02-14T03:08:28;3.77;;;3.30;;
13785;SDS011;47474;48.824;9.384;2024-02-14T03:10:55;5.77;;;3.10;;
13785;SDS011;47474;48.824;9.384;2024-02-14T03:13:24;4.83;;;3.00;;
13785;SDS011;47474;48.824;9.384;2024-02-14T03:15:52;4.60;;;2.90;;
13785;SDS011;47474;48.824;9.384;2024-02-14T03:18:21;4.00;;;2.70;;
13785;SDS011;47474;48.824;9.384;2024-02-14T03:20:48;4.77;;;3.63;;
13785;SDS011;47474;48.824;9.384;2024-02-14T03:23:15;4.10;;;3.27;;
13785;SDS011;47474;48.824;9.384;2024-02-14T03:25:41;5.77;;;3.47;;
13785;SDS011;47474;48.824;9.384;2024-02-14T03:28:08;4.87;;;3.37;;
13785;SDS011;47474;48.824;9.384;2024-02-14T03:30:34;4.00;;;3.60;;
13785;SDS011;47474;48.824;9.384;2024-02-14T03:33:02;5.63;;;3.40;;
13785;SDS011;47474;48.824;9.384;2024-02-14T03:35:29;4.33;;;3.53;;
13785;SDS011;47474;48.824;9.384;2024-02-14T03:37:56;3.23;;;2.90;;
13785;SDS011;47474;48.824;9.384;2024-02-14T03:40:22;3.00;;;2.70;;
13785;SDS011;47474;48.824;9.384;2024-02-14T03:42:49;4.13;;;3.73;;
13785;SDS011;47474;48.824;9.384;2024-02-14T03:45:16;3.53;;;3.13;;
13785;SDS011;47474;48.824;9.384;2024-02-14T03:47:43;4.60;;;2.77;;
13785;SDS011;47474;48.824;9.384;2024-02-14T03:50:11;3.10;;;2.80;;
13785;SDS011;47474;48.824;9.384;2024-02-14T03:52:41;5.40;;;3.57;;
13785;SDS011;47474;48.824;9.384;2024-02-14T03:55:08;4.00;;;2.97;;
13785;SDS011;47474;48.824;9.384;2024-02-14T03:57:38;4.60;;;3.57;;
13785;SDS011;47474;48.824;9.384;2024-02-14T04:00:05;4.30;;;3.10;;
13785;SDS011;47474;48.824;9.384;2024-02-14T04:02:38;8.10;;;3.80;;
13785;SDS011;47474;48.824;9.384;2024-02-14T04:05:05;4.10;;;3.43;;
13785;SDS011;47474;48.824;9.384;2024-02-14T04:07:33;3.47;;;2.53;;
13785;SDS011;47474;48.824;9.384;2024-02-14T04:10:01;3.33;;;2.30;;
13785;SDS011;47474;48.824;9.384;2024-02-14T04:12:28;4.30;;;2.43;;
13785;SDS011;47474;48.824;9.384;2024-02-14T04:14:54;4.50;;;2.20;;
13785;SDS011;47474;48.824;9.384;2024-02-14T04:17:21;6.73;;;2.73;;
13785;SDS011;47474;48.824;9.384;2024-02-14T04:19:49;3.83;;;2.37;;
13785;SDS011;47474;48.824;9.384;2024-02-14T04:22:15;3.70;;;2.73;;
13785;SDS011;47474;48.824;9.384;2024-02-14T04:24:43;4.00;;;3.43;;
13785;SDS011;47474;48.824;9.384;2024-02-14T04:27:12;5.10;;;3.00;;
13785;SDS011;47474;48.824;9.384;2024-02-14T04:29:39;3.97;;;2.80;;
13785;SDS011;47474;48.824;9.384;2024-02-14T04:32:07;2.93;;;2.63;;
13785;SDS011;47474;48.824;9.384;2024-02-14T04:34:36;2.90;;;2.60;;
13785;SDS011;47474;48.824;9.384;2024-02-14T04:37:04;5.00;;;3.03;;
13785;SDS011;47474;48.824;9.384;2024-02-14T04:39:35;4.17;;;2.73;;
13785;SDS011;47474;48.824;9.384;2024-02-14T04:42:10;4.03;;;2.63;;
13785;SDS011;47474;48.824;9.384;2024-02-14T04:44:39;3.63;;;3.17;;
13785;SDS011;47474;48.824;9.384;2024-02-14T04:47:08;5.63;;;3.60;;
13785;SDS011;47474;48.824;9.384;2024-02-14T04:49:35;5.10;;;2.97;;
13785;SDS011;47474;48.824;9.384;2024-02-14T04:52:02;3.70;;;2.97;;
13785;SDS011;47474;48.824;9.384;2024-02-14T04:54:29;4.77;;;2.40;;
13785;SDS011;47474;48.824;9.384;2024-02-14T04:56:55;2.83;;;2.47;;
13785;SDS011;47474;48.824;9.384;2024-02-14T04:59:23;2.67;;;2.10;;
13785;SDS011;47474;48.824;9.384;2024-02-14T05:01:50;3.23;;;2.00;;
13785;SDS011;47474;48.824;9.384;2024-02-14T05:04:19;5.50;;;3.10;;
13785;SDS011;47474;48.824;9.384;2024-02-14T05:06:45;8.23;;;5.10;;
13785;SDS011;47474;48.824;9.384;2024-02-14T05:09:12;11.63;;;8.43;;
13785;SDS011;47474;48.824;9.384;2024-02-14T05:11:40;4.83;;;4.33;;
13785;SDS011;47474;48.824;9.384;2024-02-14T05:14:06;5.90;;;4.17;;
13785;SDS011;47474;48.824;9.384;2024-02-14T05:16:34;4.03;;;3.63;;
13785;SDS011;47474;48.824;9.384;2024-02-14T05:19:01;5.80;;;3.60;;
13785;SDS011;47474;48.824;9.384;2024-02-14T05:21:28;4.33;;;3.37;;
13785;SDS011;47474;48.824;9.384;2024-02-14T05:23:55;3.63;;;3.33;;
13785;SDS011;47474;48.824;9.384;2024-02-14T05:26:23;4.87;;;3.13;;
13785;SDS011;47474;48.824;9.384;2024-02-14T05:28:50;3.63;;;3.07;;
13785;SDS011;47474;48.824;9.384;2024-02-14T05:31:18;3.20;;;2.80;;
13785;SDS011;47474;48.824;9.384;2024-02-14T05:33:45;4.20;;;3.07;;
13785;SDS011;47474;48.824;9.384;2024-02-14T05:36:12;4.33;;;2.50;;
13785;SDS011;47474;48.824;9.384;2024-02-14T05:38:38;3.77;;;3.00;;
13785;SDS011;47474;48.824;9.384;2024-02-14T05:41:05;4.00;;;3.40;;
13785;SDS011;47474;48.824;9.384;2024-02-14T05:43:32;5.60;;;4.47;;
13785;SDS011;47474;48.824;9.384;2024-02-14T05:45:59;5.27;;;3.83;;
13785;SDS011;47474;48.824;9.384;2024-02-14T05:48:25;4.57;;;3.40;;
13785;SDS011;47474;48.824;9.384;2024-02-14T05:50:53;4.07;;;3.10;;
13785;SDS011;47474;48.824;9.384;2024-02-14T05:53:20;5.03;;;3.23;;
13785;SDS011;47474;48.824;9.384;2024-02-14T05:55:46;5.47;;;3.50;;
13785;SDS011;47474;48.824;9.384;2024-02-14T05:58:13;4.50;;;3.93;;
13785;SDS011;47474;48.824;9.384;2024-02-14T06:00:40;8.63;;;5.07;;
13785;SDS011;47474;48.824;9.384;2024-02-14T06:03:06;5.53;;;4.53;;
13785;SDS011;47474;48.824;9.384;2024-02-14T06:05:33;5.83;;;3.83;;
13785;SDS011;47474;48.824;9.384;2024-02-14T06:08:01;7.10;;;4.87;;
13785;SDS011;47474;48.824;9.384;2024-02-14T06:10:28;7.23;;;4.50;;
13785;SDS011;47474;48.824;9.384;2024-02-14T06:12:54;3.90;;;3.40;;
13785;SDS011;47474;48.824;9.384;2024-02-14T06:15:21;3.50;;;3.20;;
13785;SDS011;47474;48.824;9.384;2024-02-14T06:17:48;4.23;;;3.40;;
13785;SDS011;47474;48.824;9.384;2024-02-14T06:20:15;3.50;;;3.17;;
13785;SDS011;47474;48.824;9.384;2024-02-14T06:22:41;4.33;;;2.80;;
13785;SDS011;47474;48.824;9.384;2024-02-14T06:25:09;8.70;;;4.93;;
13785;SDS011;47474;48.824;9.384;2024-02-14T06:27:35;5.20;;;4.70;;
13785;SDS011;47474;48.824;9.384;2024-02-14T06:30:02;5.83;;;3.93;;
13785;SDS011;47474;48.824;9.384;2024-02-14T06:32:29;3.17;;;2.87;;
13785;SDS011;47474;48.824;9.384;2024-02-14T06:34:56;4.03;;;2.83;;
13785;SDS011;47474;48.824;9.384;2024-02-14T06:37:22;6.60;;;3.73;;
13785;SDS011;47474;48.824;9.384;2024-02-14T06:39:49;4.53;;;3.10;;
13785;SDS011;47474;48.824;9.384;2024-02-14T06:42:17;4.10;;;2.60;;
13785;SDS011;47474;48.824;9.384;2024-02-14T06:44:44;5.40;;;3.63;;
13785;SDS011;47474;48.824;9.384;2024-02-14T06:47:11;3.80;;;3.00;;
13785;SDS011;47474;48.824;9.384;2024-02-14T06:49:37;3.90;;;3.30;;
13785;SDS011;47474;48.824;9.384;2024-02-14T06:52:04;6.83;;;3.40;;
13785;SDS011;47474;48.824;9.384;2024-02-14T06:54:31;4.63;;;3.37;;
13785;SDS011;47474;48.824;9.384;2024-02-14T06:56:57;4.10;;;3.07;;
13785;SDS011;47474;48.824;9.384;2024-02-14T06:59:26;4.00;;;3.50;;
13785;SDS011;47474;48.824;9.384;2024-02-14T07:01:52;4.13;;;3.30;;
13785;SDS011;47474;48.824;9.384;2024-02-14T07:04:19;4.17;;;3.50;;
13785;SDS011;47474;48.824;9.384;2024-02-14T07:06:50;5.83;;;3.67;;
13785;SDS011;47474;48.824;9.384;2024-02-14T07:09:17;5.73;;;3.73;;
13785;SDS011;47474;48.824;9.384;2024-02-14T07:11:43;5.00;;;3.87;;
13785;SDS011;47474;48.824;9.384;2024-02-14T07:14:10;5.40;;;3.53;;
13785;SDS011;47474;48.824;9.384;2024-02-14T07:16:38;3.37;;;2.97;;
13785;SDS011;47474;48.824;9.384;2024-02-14T07:19:05;5.00;;;3.10;;
13785;SDS011;47474;48.824;9.384;2024-02-14T07:21:31;7.13;;;3.60;;
13785;SDS011;47474;48.824;9.384;2024-02-14T07:23:58;5.67;;;3.63;;
13785;SDS011;47474;48.824;9.384;2024-02-14T07:26:24;7.20;;;4.27;;
13785;SDS011;47474;48.824;9.384;2024-02-14T07:28:51;4.30;;;3.33;;
13785;SDS011;47474;48.824;9.384;2024-02-14T07:31:18;5.17;;;3.90;;
13785;SDS011;47474;48.824;9.384;2024-02-14T07:33:45;5.90;;;4.07;;
13785;SDS011;47474;48.824;9.384;2024-02-14T07:36:13;3.70;;;3.17;;
13785;SDS011;47474;48.824;9.384;2024-02-14T07:38:39;4.93;;;3.43;;
13785;SDS011;47474;48.824;9.384;2024-02-14T07:41:07;6.07;;;3.60;;
13785;SDS011;47474;48.824;9.384;2024-02-14T07:43:34;3.30;;;3.00;;
13785;SDS011;47474;48.824;9.384;2024-02-14T07:46:00;5.03;;;3.70;;
13785;SDS011;47474;48.824;9.384;2024-02-14T07:48:27;4.90;;;3.70;;
13785;SDS011;47474;48.824;9.384;2024-02-14T07:50:54;5.27;;;4.63;;
13785;SDS011;47474;48.824;9.384;2024-02-14T07:53:21;7.73;;;4.43;;
13785;SDS011;47474;48.824;9.384;2024-02-14T07:55:48;4.43;;;3.50;;
13785;SDS011;47474;48.824;9.384;2024-02-14T07:58:14;3.70;;;3.40;;
13785;SDS011;47474;48.824;9.384;2024-02-14T08:00:41;5.70;;;3.30;;
13785;SDS011;47474;48.824;9.384;2024-02-14T08:03:07;3.83;;;2.80;;
13785;SDS011;47474;48.824;9.384;2024-02-14T08:05:34;5.53;;;3.23;;
13785;SDS011;47474;48.824;9.384;2024-02-14T08:08:02;4.23;;;3.67;;
13785;SDS011;47474;48.824;9.384;2024-02-14T08:10:28;4.57;;;4.07;;
13785;SDS011;47474;48.824;9.384;2024-02-14T08:12:55;4.67;;;3.70;;
13785;SDS011;47474;48.824;9.384;2024-02-14T08:15:21;3.77;;;3.13;;
13785;SDS011;47474;48.824;9.384;2024-02-14T08:17:47;4.10;;;2.80;;
13785;SDS011;47474;48.824;9.384;2024-02-14T08:20:14;2.77;;;2.27;;
13785;SDS011;47474;48.824;9.384;2024-02-14T08:22:40;4.03;;;2.27;;
13785;SDS011;47474;48.824;9.384;2024-02-14T08:25:09;5.37;;;3.93;;
13785;SDS011;47474;48.824;9.384;2024-02-14T08:27:36;6.87;;;3.90;;
13785;SDS011;47474;48.824;9.384;2024-02-14T08:30:03;4.80;;;3.80;;
13785;SDS011;47474;48.824;9.384;2024-02-14T08:32:31;4.77;;;4.00;;
13785;SDS011;47474;48.824;9.384;2024-02-14T08:34:58;6.53;;;4.00;;
13785;SDS011;47474;48.824;9.384;2024-02-14T08:37:24;6.53;;;4.40;;
13785;SDS011;47474;48.824;9.384;2024-02-14T08:39:50;7.17;;;3.90;;
13785;SDS011;47474;48.824;9.384;2024-02-14T08:42:18;5.07;;;3.80;;
13785;SDS011;47474;48.824;9.384;2024-02-14T08:44:45;6.07;;;3.83;;
13785;SDS011;47474;48.824;9.384;2024-02-14T08:47:11;5.67;;;4.60;;
13785;SDS011;47474;48.824;9.384;2024-02-14T08:49:40;5.83;;;3.60;;
13785;SDS011;47474;48.824;9.384;2024-02-14T08:52:06;5.63;;;3.83;;
13785;SDS011;47474;48.824;9.384;2024-02-14T08:54:33;5.30;;;3.13;;
13785;SDS011;47474;48.824;9.384;2024-02-14T08:57:00;5.33;;;3.50;;
13785;SDS011;47474;48.824;9.384;2024-02-14T08:59:29;8.67;;;3.67;;
13785;SDS011;47474;48.824;9.384;2024-02-14T09:01:55;4.00;;;3.60;;
13785;SDS011;47474;48.824;9.384;2024-02-14T09:04:22;4.07;;;3.27;;
13785;SDS011;47474;48.824;9.384;2024-02-14T09:06:48;7.67;;;3.90;;
13785;SDS011;47474;48.824;9.384;2024-02-14T09:09:15;3.97;;;2.60;;
13785;SDS011;47474;48.824;9.384;2024-02-14T09:11:41;4.03;;;2.60;;
13785;SDS011;47474;48.824;9.384;2024-02-14T09:14:07;4.90;;;2.77;;
13785;SDS011;47474;48.824;9.384;2024-02-14T09:16:36;3.80;;;2.57;;
13785;SDS011;47474;48.824;9.384;2024-02-14T09:19:03;2.93;;;2.57;;
13785;SDS011;47474;48.824;9.384;2024-02-14T09:21:31;4.53;;;2.27;;
13785;SDS011;47474;48.824;9.384;2024-02-14T09:23:59;2.33;;;2.03;;
13785;SDS011;47474;48.824;9.384;2024-02-14T09:26:26;4.27;;;2.97;;
13785;SDS011;47474;48.824;9.384;2024-02-14T09:28:53;4.80;;;2.70;;
13785;SDS011;47474;48.824;9.384;2024-02-14T09:31:20;5.17;;;2.53;;
13785;SDS011;47474;48.824;9.384;2024-02-14T09:33:48;4.53;;;2.37;;
13785;SDS011;47474;48.824;9.384;2024-02-14T09:36:15;3.93;;;2.63;;
13785;SDS011;47474;48.824;9.384;2024-02-14T09:38:42;4.97;;;2.60;;
13785;SDS011;47474;48.824;9.384;2024-02-14T09:41:11;4.33;;;2.53;;
13785;SDS011;47474;48.824;9.384;2024-02-14T09:43:43;2.70;;;1.90;;
13785;SDS011;47474;48.824;9.384;2024-02-14T09:46:11;3.93;;;2.03;;
13785;SDS011;47474;48.824;9.384;2024-02-14T09:48:39;3.93;;;2.70;;
13785;SDS011;47474;48.824;9.384;2024-02-14T09:51:09;4.03;;;2.20;;
13785;SDS011;47474;48.824;9.384;2024-02-14T09:53:35;3.43;;;2.77;;
13785;SDS011;47474;48.824;9.384;2024-02-14T09:56:02;2.90;;;2.30;;
13785;SDS011;47474;48.824;9.384;2024-02-14T09:58:29;3.53;;;2.40;;
13785;SDS011;47474;48.824;9.384;2024-02-14T10:00:57;4.07;;;2.30;;
13785;SDS011;47474;48.824;9.384;2024-02-14T10:03:23;5.23;;;2.93;;
13785;SDS011;47474;48.824;9.384;2024-02-14T10:05:50;4.97;;;2.47;;
13785;SDS011;47474;48.824;9.384;2024-02-14T10:08:18;2.77;;;2.27;;
13785;SDS011;47474;48.824;9.384;2024-02-14T10:10:45;1.87;;;1.70;;
13785;SDS011;47474;48.824;9.384;2024-02-14T10:13:12;3.47;;;2.47;;
13785;SDS011;47474;48.824;9.384;2024-02-14T10:15:38;2.57;;;1.90;;
13785;SDS011;47474;48.824;9.384;2024-02-14T10:18:05;7.37;;;1.80;;
13785;SDS011;47474;48.824;9.384;2024-02-14T10:20:34;4.37;;;2.23;;
13785;SDS011;47474;48.824;9.384;2024-02-14T10:23:07;4.07;;;2.17;;
13785;SDS011;47474;48.824;9.384;2024-02-14T10:25:35;3.17;;;2.13;;
13785;SDS011;47474;48.824;9.384;2024-02-14T10:28:03;2.97;;;2.10;;
13785;SDS011;47474;48.824;9.384;2024-02-14T10:30:33;2.93;;;2.50;;
13785;SDS011;47474;48.824;9.384;2024-02-14T10:33:01;5.80;;;2.28;;
13785;SDS011;47474;48.824;9.384;2024-02-14T10:35:29;5.00;;;2.30;;
13785;SDS011;47474;48.824;9.384;2024-02-14T10:37:57;2.38;;;2.17;;
13785;SDS011;47474;48.824;9.384;2024-02-14T10:40:27;4.75;;;2.40;;
13785;SDS011;47474;48.824;9.384;2024-02-14T10:42:55;2.25;;;1.38;;
13785;SDS011;47474;48.824;9.384;2024-02-14T10:45:23;4.32;;;1.90;;
13785;SDS011;47474;48.824;9.384;2024-02-14T10:47:49;1.58;;;1.40;;
13785;SDS011;47474;48.824;9.384;2024-02-14T10:50:17;2.55;;;1.42;;
13785;SDS011;47474;48.824;9.384;2024-02-14T10:52:48;2.95;;;1.33;;
13785;SDS011;47474;48.824;9.384;2024-02-14T10:55:15;2.33;;;1.27;;
13785;SDS011;47474;48.824;9.384;2024-02-14T10:57:42;1.52;;;1.40;;
13785;SDS011;47474;48.824;9.384;2024-02-14T11:00:12;5.03;;;4.47;;
13785;SDS011;47474;48.824;9.384;2024-02-14T11:02:41;5.30;;;2.42;;
13785;SDS011;47474;48.824;9.384;2024-02-14T11:05:11;3.75;;;3.45;;
13785;SDS011;47474;48.824;9.384;2024-02-14T11:07:43;3.15;;;2.58;;
13785;SDS011;47474;48.824;9.384;2024-02-14T11:10:12;4.55;;;4.15;;
13785;SDS011;47474;48.824;9.384;2024-02-14T11:12:39;8.15;;;7.25;;
13785;SDS011;47474;48.824;9.384;2024-02-14T11:15:09;5.43;;;4.53;;
13785;SDS011;47474;48.824;9.384;2024-02-14T11:17:38;7.82;;;7.03;;
13785;SDS011;47474;48.824;9.384;2024-02-14T11:20:15;5.28;;;3.95;;
13785;SDS011;47474;48.824;9.384;2024-02-14T11:22:55;11.35;;;8.55;;
13785;SDS011;47474;48.824;9.384;2024-02-14T11:25:23;2.53;;;1.70;;
13785;SDS011;47474;48.824;9.384;2024-02-14T11:27:55;1.88;;;1.40;;
13785;SDS011;47474;48.824;9.384;2024-02-14T11:30:33;4.03;;;3.10;;
13785;SDS011;47474;48.824;9.384;2024-02-14T11:33:13;1.77;;;1.67;;
13785;SDS011;47474;48.824;9.384;2024-02-14T11:35:41;1.88;;;1.60;;
13785;SDS011;47474;48.824;9.384;2024-02-14T11:38:08;2.20;;;2.00;;
13785;SDS011;47474;48.824;9.384;2024-02-14T11:40:35;1.15;;;1.08;;
13785;SDS011;47474;48.824;9.384;2024-02-14T11:43:03;1.67;;;1.35;;
13785;SDS011;47474;48.824;9.384;2024-02-14T11:45:31;2.40;;;2.17;;
13785;SDS011;47474;48.824;9.384;2024-02-14T11:47:58;3.53;;;2.13;;
13785;SDS011;47474;48.824;9.384;2024-02-14T11:50:24;1.83;;;1.60;;
13785;SDS011;47474;48.824;9.384;2024-02-14T11:52:51;3.75;;;3.45;;
13785;SDS011;47474;48.824;9.384;2024-02-14T11:55:18;3.15;;;1.90;;
13785;SDS011;47474;48.824;9.384;2024-02-14T11:57:44;3.50;;;1.98;;
13785;SDS011;47474;48.824;9.384;2024-02-14T12:00:13;2.10;;;1.90;;
13785;SDS011;47474;48.824;9.384;2024-02-14T12:02:41;2.08;;;1.80;;
13785;SDS011;47474;48.824;9.384;2024-02-14T12:05:08;1.35;;;1.15;;
13785;SDS011;47474;48.824;9.384;2024-02-14T12:07:34;1.30;;;1.10;;
13785;SDS011;47474;48.824;9.384;2024-02-14T12:10:01;1.23;;;1.10;;
13785;SDS011;47474;48.824;9.384;2024-02-14T12:12:28;0.98;;;0.77;;
13785;SDS011;47474;48.824;9.384;2024-02-14T12:14:54;0.80;;;0.80;;
13785;SDS011;47474;48.824;9.384;2024-02-14T12:17:21;0.80;;;0.80;;
13785;SDS011;47474;48.824;9.384;2024-02-14T12:19:49;1.87;;;1.00;;
13785;SDS011;47474;48.824;9.384;2024-02-14T12:22:17;1.43;;;0.90;;
13785;SDS011;47474;48.824;9.384;2024-02-14T12:24:44;1.30;;;1.20;;
13785;SDS011;47474;48.824;9.384;2024-02-14T12:27:12;1.50;;;0.93;;
13785;SDS011;47474;48.824;9.384;2024-02-14T12:29:38;0.77;;;0.77;;
13785;SDS011;47474;48.824;9.384;2024-02-14T12:32:05;0.90;;;0.80;;
13785;SDS011;47474;48.824;9.384;2024-02-14T12:34:32;0.73;;;0.73;;
13785;SDS011;47474;48.824;9.384;2024-02-14T12:37:00;0.90;;;0.90;;
13785;SDS011;47474;48.824;9.384;2024-02-14T12:39:28;1.50;;;1.10;;
13785;SDS011;47474;48.824;9.384;2024-02-14T12:41:55;1.23;;;1.00;;
13785;SDS011;47474;48.824;9.384;2024-02-14T12:44:21;0.80;;;0.80;;
13785;SDS011;47474;48.824;9.384;2024-02-14T12:46:48;0.90;;;0.90;;
13785;SDS011;47474;48.824;9.384;2024-02-14T12:49:14;1.33;;;0.80;;
13785;SDS011;47474;48.824;9.384;2024-02-14T12:51:42;1.73;;;1.10;;
13785;SDS011;47474;48.824;9.384;2024-02-14T12:54:10;1.38;;;1.13;;
13785;SDS011;47474;48.824;9.384;2024-02-14T12:56:39;1.50;;;1.10;;
13785;SDS011;47474;48.824;9.384;2024-02-14T12:59:06;1.73;;;0.95;;
13785;SDS011;47474;48.824;9.384;2024-02-14T13:01:35;1.98;;;1.33;;
13785;SDS011;47474;48.824;9.384;2024-02-14T13:04:01;1.85;;;1.10;;
13785;SDS011;47474;48.824;9.384;2024-02-14T13:06:30;1.90;;;1.45;;
13785;SDS011;47474;48.824;9.384;2024-02-14T13:08:57;3.83;;;1.88;;
13785;SDS011;47474;48.824;9.384;2024-02-14T13:11:24;1.77;;;1.05;;
13785;SDS011;47474;48.824;9.384;2024-02-14T13:13:51;1.95;;;1.30;;
13785;SDS011;47474;48.824;9.384;2024-02-14T13:16:17;1.50;;;1.23;;
13785;SDS011;47474;48.824;9.384;2024-02-14T13:18:44;1.67;;;1.10;;
13785;SDS011;47474;48.824;9.384;2024-02-14T13:21:11;2.67;;;1.13;;
13785;SDS011;47474;48.824;9.384;2024-02-14T13:23:38;1.83;;;1.20;;
13785;SDS011;47474;48.824;9.384;2024-02-14T13:26:05;1.05;;;0.95;;
13785;SDS011;47474;48.824;9.384;2024-02-14T13:28:34;3.08;;;1.38;;
13785;SDS011;47474;48.824;9.384;2024-02-14T13:31:00;0.90;;;0.90;;
13785;SDS011;47474;48.824;9.384;2024-02-14T13:33:27;2.05;;;1.00;;
13785;SDS011;47474;48.824;9.384;2024-02-14T13:35:53;1.73;;;1.38;;
13785;SDS011;47474;48.824;9.384;2024-02-14T13:38:19;1.30;;;1.20;;
13785;SDS011;47474;48.824;9.384;2024-02-14T13:40:46;1.23;;;1.13;;
13785;SDS011;47474;48.824;9.384;2024-02-14T13:43:12;1.23;;;1.08;;
13785;SDS011;47474;48.824;9.384;2024-02-14T13:45:43;1.38;;;0.98;;
13785;SDS011;47474;48.824;9.384;2024-02-14T13:48:10;2.10;;;1.10;;
13785;SDS011;47474;48.824;9.384;2024-02-14T13:50:37;1.30;;;0.98;;
13785;SDS011;47474;48.824;9.384;2024-02-14T13:53:04;1.05;;;0.80;;
13785;SDS011;47474;48.824;9.384;2024-02-14T13:55:30;1.95;;;1.23;;
13785;SDS011;47474;48.824;9.384;2024-02-14T13:57:57;1.10;;;1.00;;
13785;SDS011;47474;48.824;9.384;2024-02-14T14:00:23;1.70;;;1.00;;
13785;SDS011;47474;48.824;9.384;2024-02-14T14:02:51;1.75;;;1.00;;
13785;SDS011;47474;48.824;9.384;2024-02-14T14:05:18;0.82;;;0.80;;
13785;SDS011;47474;48.824;9.384;2024-02-14T14:07:45;2.72;;;0.90;;
13785;SDS011;47474;48.824;9.384;2024-02-14T14:10:12;1.08;;;0.88;;
13785;SDS011;47474;48.824;9.384;2024-02-14T14:12:38;1.10;;;0.80;;
13785;SDS011;47474;48.824;9.384;2024-02-14T14:15:05;1.75;;;1.10;;
13785;SDS011;47474;48.824;9.384;2024-02-14T14:17:34;3.00;;;0.88;;
13785;SDS011;47474;48.824;9.384;2024-02-14T14:20:02;1.40;;;0.88;;
13785;SDS011;47474;48.824;9.384;2024-02-14T14:22:29;1.48;;;0.98;;
13785;SDS011;47474;48.824;9.384;2024-02-14T14:24:55;1.88;;;1.10;;
13785;SDS011;47474;48.824;9.384;2024-02-14T14:27:22;1.48;;;1.10;;
13785;SDS011;47474;48.824;9.384;2024-02-14T14:29:49;1.73;;;1.10;;
13785;SDS011;47474;48.824;9.384;2024-02-14T14:32:15;1.05;;;0.95;;
13785;SDS011;47474;48.824;9.384;2024-02-14T14:34:42;1.20;;;1.10;;
13785;SDS011;47474;48.824;9.384;2024-02-14T14:37:10;0.82;;;0.60;;
13785;SDS011;47474;48.824;9.384;2024-02-14T14:39:36;1.17;;;0.85;;
13785;SDS011;47474;48.824;9.384;2024-02-14T14:42:03;1.05;;;0.90;;
13785;SDS011;47474;48.824;9.384;2024-02-14T14:44:29;0.70;;;0.70;;
13785;SDS011;47474;48.824;9.384;2024-02-14T14:46:56;2.55;;;1.23;;
13785;SDS011;47474;48.824;9.384;2024-02-14T14:49:22;1.30;;;0.98;;